sensor_id;sensor_type;location;lat;lon;timestamp;temperature;humidity
24436;DHT22;12616;52.470;13.436;2023-10-13T00:07:03;13.50;99.90
24436;DHT22;12616;52.470;13.436;2023-10-13T00:22:05;13.50;99.90
24436;DHT22;12616;52.470;13.436;2023-10-13T00:25:16;13.50;99.90
24436;DHT22;12616;52.470;13.436;2023-10-13T00:27:48;13.50;99.90
24436;DHT22;12616;52.470;13.436;2023-10-13T00:33:47;13.50;99.90
24436;DHT22;12616;52.470;13.436;2023-10-13T00:36:54;13.40;99.90
24436;DHT22;12616;52.470;13.436;2023-10-13T01:03:39;13.50;99.90
24436;DHT22;12616;52.470;13.436;2023-10-13T01:06:40;13.50;99.90
24436;DHT22;12616;52.470;13.436;2023-10-13T01:09:23;13.50;99.90
24436;DHT22;12616;52.470;13.436;2023-10-13T01:15:51;13.50;99.90
24436;DHT22;12616;52.470;13.436;2023-10-13T01:21:03;13.50;99.90
24436;DHT22;12616;52.470;13.436;2023-10-13T01:24:09;13.50;99.90
24436;DHT22;12616;52.470;13.436;2023-10-13T01:26:47;13.50;99.90
24436;DHT22;12616;52.470;13.436;2023-10-13T01:29:32;13.50;99.90
24436;DHT22;12616;52.470;13.436;2023-10-13T01:32:23;13.50;99.90
24436;DHT22;12616;52.470;13.436;2023-10-13T01:41:31;13.50;99.90
24436;DHT22;12616;52.470;13.436;2023-10-13T01:44:34;13.40;99.90
24436;DHT22;12616;52.470;13.436;2023-10-13T01:47:26;13.50;99.90
24436;DHT22;12616;52.470;13.436;2023-10-13T01:50:08;13.50;99.90
24436;DHT22;12616;52.470;13.436;2023-10-13T01:53:03;13.50;99.90
24436;DHT22;12616;52.470;13.436;2023-10-13T01:58:25;13.50;99.90
24436;DHT22;12616;52.470;13.436;2023-10-13T02:01:24;11.90;99.90
24436;DHT22;12616;52.470;13.436;2023-10-13T02:09:49;13.40;99.90
24436;DHT22;12616;52.470;13.436;2023-10-13T02:15:06;13.40;99.90
24436;DHT22;12616;52.470;13.436;2023-10-13T02:37:09;13.50;99.90
24436;DHT22;12616;52.470;13.436;2023-10-13T03:06:49;13.80;99.90
24436;DHT22;12616;52.470;13.436;2023-10-13T03:13:00;13.50;99.90
24436;DHT22;12616;52.470;13.436;2023-10-13T03:47:16;13.70;99.90
24436;DHT22;12616;52.470;13.436;2023-10-13T03:52:54;13.70;99.90
24436;DHT22;12616;52.470;13.436;2023-10-13T03:56:06;13.70;99.90
24436;DHT22;12616;52.470;13.436;2023-10-13T04:03:22;13.70;99.90
24436;DHT22;12616;52.470;13.436;2023-10-13T04:12:57;13.70;99.90
24436;DHT22;12616;52.470;13.436;2023-10-13T04:15:59;13.80;99.90
24436;DHT22;12616;52.470;13.436;2023-10-13T04:19:05;13.80;99.90
24436;DHT22;12616;52.470;13.436;2023-10-13T04:22:15;13.80;99.90
24436;DHT22;12616;52.470;13.436;2023-10-13T04:25:25;13.80;99.90
24436;DHT22;12616;52.470;13.436;2023-10-13T04:34:11;13.80;99.90
24436;DHT22;12616;52.470;13.436;2023-10-13T04:43:33;13.90;99.90
24436;DHT22;12616;52.470;13.436;2023-10-13T04:47:29;13.90;99.90
24436;DHT22;12616;52.470;13.436;2023-10-13T05:17:54;14.20;99.90
24436;DHT22;12616;52.470;13.436;2023-10-13T05:21:05;14.10;99.90
24436;DHT22;12616;52.470;13.436;2023-10-13T05:49:46;14.20;99.90
24436;DHT22;12616;52.470;13.436;2023-10-13T05:53:14;14.20;99.90
24436;DHT22;12616;52.470;13.436;2023-10-13T05:58:36;14.30;99.90
24436;DHT22;12616;52.470;13.436;2023-10-13T06:01:29;14.30;99.90
24436;DHT22;12616;52.470;13.436;2023-10-13T06:04:26;14.30;99.90
24436;DHT22;12616;52.470;13.436;2023-10-13T06:07:25;14.40;99.90
24436;DHT22;12616;52.470;13.436;2023-10-13T06:10:17;14.40;99.90
24436;DHT22;12616;52.470;13.436;2023-10-13T06:13:08;14.40;99.90
24436;DHT22;12616;52.470;13.436;2023-10-13T06:29:45;14.80;99.90
24436;DHT22;12616;52.470;13.436;2023-10-13T06:38:19;14.80;99.90
24436;DHT22;12616;52.470;13.436;2023-10-13T06:43:26;14.80;99.90
24436;DHT22;12616;52.470;13.436;2023-10-13T06:46:12;14.80;99.90
24436;DHT22;12616;52.470;13.436;2023-10-13T06:48:58;14.90;99.90
24436;DHT22;12616;52.470;13.436;2023-10-13T06:51:47;14.90;99.90
24436;DHT22;12616;52.470;13.436;2023-10-13T07:06:05;15.30;99.90
24436;DHT22;12616;52.470;13.436;2023-10-13T07:08:46;15.30;99.90
24436;DHT22;12616;52.470;13.436;2023-10-13T07:16:41;15.40;99.90
24436;DHT22;12616;52.470;13.436;2023-10-13T07:19:12;15.60;99.90
24436;DHT22;12616;52.470;13.436;2023-10-13T07:21:44;15.60;99.90
24436;DHT22;12616;52.470;13.436;2023-10-13T07:24:12;15.90;99.90
24436;DHT22;12616;52.470;13.436;2023-10-13T07:26:39;15.70;99.90
24436;DHT22;12616;52.470;13.436;2023-10-13T07:29:11;15.70;99.90
24436;DHT22;12616;52.470;13.436;2023-10-13T07:31:38;15.60;99.90
24436;DHT22;12616;52.470;13.436;2023-10-13T07:34:10;15.90;99.90
24436;DHT22;12616;52.470;13.436;2023-10-13T07:36:52;15.90;99.90
24436;DHT22;12616;52.470;13.436;2023-10-13T07:39:20;15.90;99.90
24436;DHT22;12616;52.470;13.436;2023-10-13T07:41:51;15.90;99.90
24436;DHT22;12616;52.470;13.436;2023-10-13T07:44:20;16.00;99.90
24436;DHT22;12616;52.470;13.436;2023-10-13T07:46:51;16.10;99.90
24436;DHT22;12616;52.470;13.436;2023-10-13T07:49:28;16.10;99.90
24436;DHT22;12616;52.470;13.436;2023-10-13T07:51:59;16.10;99.90
24436;DHT22;12616;52.470;13.436;2023-10-13T07:54:44;16.20;99.90
24436;DHT22;12616;52.470;13.436;2023-10-13T07:57:13;16.20;99.90
24436;DHT22;12616;52.470;13.436;2023-10-13T07:59:40;16.20;99.90
24436;DHT22;12616;52.470;13.436;2023-10-13T08:02:15;16.80;99.90
24436;DHT22;12616;52.470;13.436;2023-10-13T08:05:02;16.30;99.90
24436;DHT22;12616;52.470;13.436;2023-10-13T08:07:32;16.40;99.90
24436;DHT22;12616;52.470;13.436;2023-10-13T08:10:06;16.40;99.90
24436;DHT22;12616;52.470;13.436;2023-10-13T08:12:35;16.40;99.90
24436;DHT22;12616;52.470;13.436;2023-10-13T08:20:18;16.60;99.90
24436;DHT22;12616;52.470;13.436;2023-10-13T08:22:48;16.60;99.90
24436;DHT22;12616;52.470;13.436;2023-10-13T08:25:35;16.70;99.90
24436;DHT22;12616;52.470;13.436;2023-10-13T08:28:16;16.70;99.90
24436;DHT22;12616;52.470;13.436;2023-10-13T08:31:03;16.80;99.90
24436;DHT22;12616;52.470;13.436;2023-10-13T08:33:47;16.80;99.90
24436;DHT22;12616;52.470;13.436;2023-10-13T08:36:14;17.00;99.90
24436;DHT22;12616;52.470;13.436;2023-10-13T08:38:56;17.10;99.90
24436;DHT22;12616;52.470;13.436;2023-10-13T08:41:23;17.20;99.90
24436;DHT22;12616;52.470;13.436;2023-10-13T08:44:01;17.10;99.90
24436;DHT22;12616;52.470;13.436;2023-10-13T08:46:33;17.20;99.90
24436;DHT22;12616;52.470;13.436;2023-10-13T08:49:16;17.20;99.90
24436;DHT22;12616;52.470;13.436;2023-10-13T08:51:45;17.20;99.90
24436;DHT22;12616;52.470;13.436;2023-10-13T08:54:16;17.20;99.90
24436;DHT22;12616;52.470;13.436;2023-10-13T08:56:59;17.20;99.90
24436;DHT22;12616;52.470;13.436;2023-10-13T08:59:32;17.20;99.90
24436;DHT22;12616;52.470;13.436;2023-10-13T09:02:15;17.30;99.90
24436;DHT22;12616;52.470;13.436;2023-10-13T09:04:45;17.30;99.90
24436;DHT22;12616;52.470;13.436;2023-10-13T09:07:13;17.30;99.90
24436;DHT22;12616;52.470;13.436;2023-10-13T09:09:47;17.30;99.90
24436;DHT22;12616;52.470;13.436;2023-10-13T09:12:37;17.30;99.90
24436;DHT22;12616;52.470;13.436;2023-10-13T09:15:07;17.30;99.90
24436;DHT22;12616;52.470;13.436;2023-10-13T09:17:45;18.10;99.90
24436;DHT22;12616;52.470;13.436;2023-10-13T09:20:27;17.40;99.90
24436;DHT22;12616;52.470;13.436;2023-10-13T09:23:10;17.60;99.90
24436;DHT22;12616;52.470;13.436;2023-10-13T09:25:40;17.50;99.90
24436;DHT22;12616;52.470;13.436;2023-10-13T09:28:20;17.60;99.90
24436;DHT22;12616;52.470;13.436;2023-10-13T09:30:48;17.60;99.90
24436;DHT22;12616;52.470;13.436;2023-10-13T09:33:20;17.60;99.90
24436;DHT22;12616;52.470;13.436;2023-10-13T09:35:54;17.60;99.90
24436;DHT22;12616;52.470;13.436;2023-10-13T09:38:20;17.60;99.90
24436;DHT22;12616;52.470;13.436;2023-10-13T09:40:48;17.50;99.90
24436;DHT22;12616;52.470;13.436;2023-10-13T09:43:16;17.50;99.90
24436;DHT22;12616;52.470;13.436;2023-10-13T09:45:47;17.40;99.90
24436;DHT22;12616;52.470;13.436;2023-10-13T09:48:32;17.40;99.90
24436;DHT22;12616;52.470;13.436;2023-10-13T09:51:01;17.40;99.90
24436;DHT22;12616;52.470;13.436;2023-10-13T09:53:30;17.30;99.90
24436;DHT22;12616;52.470;13.436;2023-10-13T09:56:03;17.50;99.90
24436;DHT22;12616;52.470;13.436;2023-10-13T09:58:46;17.50;99.90
24436;DHT22;12616;52.470;13.436;2023-10-13T10:01:22;17.40;99.90
24436;DHT22;12616;52.470;13.436;2023-10-13T10:04:07;17.40;99.90
24436;DHT22;12616;52.470;13.436;2023-10-13T10:06:35;17.40;99.90
24436;DHT22;12616;52.470;13.436;2023-10-13T10:09:05;17.30;99.90
24436;DHT22;12616;52.470;13.436;2023-10-13T10:12:04;17.40;99.90
24436;DHT22;12616;52.470;13.436;2023-10-13T10:14:46;17.40;99.90
24436;DHT22;12616;52.470;13.436;2023-10-13T10:17:20;17.40;99.90
24436;DHT22;12616;52.470;13.436;2023-10-13T10:19:49;17.50;99.90
24436;DHT22;12616;52.470;13.436;2023-10-13T10:22:26;17.50;99.90
24436;DHT22;12616;52.470;13.436;2023-10-13T10:24:56;17.50;99.90
24436;DHT22;12616;52.470;13.436;2023-10-13T10:27:27;17.50;99.90
24436;DHT22;12616;52.470;13.436;2023-10-13T10:29:56;17.50;99.90
24436;DHT22;12616;52.470;13.436;2023-10-13T10:32:35;17.50;99.90
24436;DHT22;12616;52.470;13.436;2023-10-13T10:35:06;17.50;99.90
24436;DHT22;12616;52.470;13.436;2023-10-13T10:37:35;17.30;99.90
24436;DHT22;12616;52.470;13.436;2023-10-13T10:40:07;17.50;99.90
24436;DHT22;12616;52.470;13.436;2023-10-13T10:42:51;17.50;99.90
24436;DHT22;12616;52.470;13.436;2023-10-13T10:45:22;17.50;99.90
24436;DHT22;12616;52.470;13.436;2023-10-13T10:47:51;17.50;99.90
24436;DHT22;12616;52.470;13.436;2023-10-13T10:50:25;17.50;99.90
24436;DHT22;12616;52.470;13.436;2023-10-13T10:53:01;17.50;99.90
24436;DHT22;12616;52.470;13.436;2023-10-13T10:55:27;17.50;99.90
24436;DHT22;12616;52.470;13.436;2023-10-13T10:58:00;17.40;99.90
24436;DHT22;12616;52.470;13.436;2023-10-13T11:00:31;17.40;99.90
24436;DHT22;12616;52.470;13.436;2023-10-13T11:03:07;17.40;99.90
24436;DHT22;12616;52.470;13.436;2023-10-13T11:05:45;17.40;99.90
24436;DHT22;12616;52.470;13.436;2023-10-13T11:08:23;17.50;99.90
24436;DHT22;12616;52.470;13.436;2023-10-13T11:10:57;17.60;99.90
24436;DHT22;12616;52.470;13.436;2023-10-13T11:13:27;17.40;99.90
24436;DHT22;12616;52.470;13.436;2023-10-13T11:16:08;17.40;99.90
24436;DHT22;12616;52.470;13.436;2023-10-13T11:18:36;17.60;99.90
24436;DHT22;12616;52.470;13.436;2023-10-13T11:21:06;17.50;99.90
24436;DHT22;12616;52.470;13.436;2023-10-13T11:23:33;17.50;99.90
24436;DHT22;12616;52.470;13.436;2023-10-13T11:26:02;17.70;99.90
24436;DHT22;12616;52.470;13.436;2023-10-13T11:28:31;17.60;99.90
24436;DHT22;12616;52.470;13.436;2023-10-13T11:31:00;17.60;99.90
24436;DHT22;12616;52.470;13.436;2023-10-13T11:33:36;17.70;99.90
24436;DHT22;12616;52.470;13.436;2023-10-13T11:36:08;17.70;99.90
24436;DHT22;12616;52.470;13.436;2023-10-13T11:38:42;17.70;99.90
24436;DHT22;12616;52.470;13.436;2023-10-13T11:41:15;17.80;99.90
24436;DHT22;12616;52.470;13.436;2023-10-13T11:43:44;17.70;99.90
24436;DHT22;12616;52.470;13.436;2023-10-13T11:46:30;17.70;99.90
24436;DHT22;12616;52.470;13.436;2023-10-13T11:49:14;17.70;99.90
24436;DHT22;12616;52.470;13.436;2023-10-13T11:51:46;17.70;99.90
24436;DHT22;12616;52.470;13.436;2023-10-13T11:54:13;17.80;99.90
24436;DHT22;12616;52.470;13.436;2023-10-13T11:56:41;17.80;99.90
24436;DHT22;12616;52.470;13.436;2023-10-13T11:59:09;17.80;99.90
24436;DHT22;12616;52.470;13.436;2023-10-13T12:01:44;17.70;99.90
24436;DHT22;12616;52.470;13.436;2023-10-13T12:04:28;18.10;99.90
24436;DHT22;12616;52.470;13.436;2023-10-13T12:07:00;18.00;99.90
24436;DHT22;12616;52.470;13.436;2023-10-13T12:09:40;18.10;99.90
24436;DHT22;12616;52.470;13.436;2023-10-13T12:12:18;18.20;99.90
24436;DHT22;12616;52.470;13.436;2023-10-13T12:14:46;18.30;99.90
24436;DHT22;12616;52.470;13.436;2023-10-13T12:17:20;18.30;99.90
24436;DHT22;12616;52.470;13.436;2023-10-13T12:19:51;18.40;99.90
24436;DHT22;12616;52.470;13.436;2023-10-13T12:22:18;18.60;99.90
24436;DHT22;12616;52.470;13.436;2023-10-13T12:24:52;18.50;99.90
24436;DHT22;12616;52.470;13.436;2023-10-13T12:27:19;18.50;99.90
24436;DHT22;12616;52.470;13.436;2023-10-13T12:29:51;18.70;99.90
24436;DHT22;12616;52.470;13.436;2023-10-13T12:32:18;18.60;99.90
24436;DHT22;12616;52.470;13.436;2023-10-13T12:34:48;18.60;99.90
24436;DHT22;12616;52.470;13.436;2023-10-13T12:37:26;18.70;99.90
24436;DHT22;12616;52.470;13.436;2023-10-13T12:40:17;18.80;99.90
24436;DHT22;12616;52.470;13.436;2023-10-13T12:43:02;18.80;99.90
24436;DHT22;12616;52.470;13.436;2023-10-13T12:45:48;18.90;99.90
24436;DHT22;12616;52.470;13.436;2023-10-13T12:48:34;18.90;99.90
24436;DHT22;12616;52.470;13.436;2023-10-13T12:51:20;18.90;99.90
24436;DHT22;12616;52.470;13.436;2023-10-13T12:53:50;19.00;99.90
24436;DHT22;12616;52.470;13.436;2023-10-13T12:56:18;19.10;99.90
24436;DHT22;12616;52.470;13.436;2023-10-13T12:58:52;19.10;99.90
24436;DHT22;12616;52.470;13.436;2023-10-13T13:01:21;19.20;99.90
24436;DHT22;12616;52.470;13.436;2023-10-13T13:03:50;19.20;99.90
24436;DHT22;12616;52.470;13.436;2023-10-13T13:06:22;19.30;99.90
24436;DHT22;12616;52.470;13.436;2023-10-13T13:08:50;19.30;99.90
24436;DHT22;12616;52.470;13.436;2023-10-13T13:11:17;19.30;99.90
24436;DHT22;12616;52.470;13.436;2023-10-13T13:13:44;19.30;99.90
24436;DHT22;12616;52.470;13.436;2023-10-13T13:16:11;19.40;99.90
24436;DHT22;12616;52.470;13.436;2023-10-13T13:18:40;19.60;99.90
24436;DHT22;12616;52.470;13.436;2023-10-13T13:21:08;19.40;99.90
24436;DHT22;12616;52.470;13.436;2023-10-13T13:23:37;19.50;99.90
24436;DHT22;12616;52.470;13.436;2023-10-13T13:26:05;19.60;99.90
24436;DHT22;12616;52.470;13.436;2023-10-13T13:28:41;19.70;99.90
24436;DHT22;12616;52.470;13.436;2023-10-13T13:31:08;19.70;99.90
24436;DHT22;12616;52.470;13.436;2023-10-13T13:33:38;19.80;99.90
24436;DHT22;12616;52.470;13.436;2023-10-13T13:36:10;19.80;99.90
24436;DHT22;12616;52.470;13.436;2023-10-13T13:38:39;19.80;99.90
24436;DHT22;12616;52.470;13.436;2023-10-13T13:41:11;19.90;99.90
24436;DHT22;12616;52.470;13.436;2023-10-13T13:43:41;19.80;99.90
24436;DHT22;12616;52.470;13.436;2023-10-13T13:46:20;20.00;99.90
24436;DHT22;12616;52.470;13.436;2023-10-13T13:48:51;20.00;99.90
24436;DHT22;12616;52.470;13.436;2023-10-13T13:51:25;20.00;99.90
24436;DHT22;12616;52.470;13.436;2023-10-13T13:54:14;20.00;99.90
24436;DHT22;12616;52.470;13.436;2023-10-13T13:56:42;21.30;99.90
24436;DHT22;12616;52.470;13.436;2023-10-13T13:59:10;20.10;99.90
24436;DHT22;12616;52.470;13.436;2023-10-13T14:01:41;20.10;99.90
24436;DHT22;12616;52.470;13.436;2023-10-13T14:04:10;20.20;99.90
24436;DHT22;12616;52.470;13.436;2023-10-13T14:06:38;20.20;99.90
24436;DHT22;12616;52.470;13.436;2023-10-13T14:20:50;20.20;99.90
24436;DHT22;12616;52.470;13.436;2023-10-13T14:24:02;20.10;99.90
24436;DHT22;12616;52.470;13.436;2023-10-13T14:32:43;20.10;99.90
24436;DHT22;12616;52.470;13.436;2023-10-13T14:35:35;20.10;99.90
24436;DHT22;12616;52.470;13.436;2023-10-13T14:43:57;20.10;99.90
24436;DHT22;12616;52.470;13.436;2023-10-13T14:50:10;20.20;99.90
24436;DHT22;12616;52.470;13.436;2023-10-13T14:56:02;20.10;99.90
24436;DHT22;12616;52.470;13.436;2023-10-13T15:48:26;19.60;99.90
24436;DHT22;12616;52.470;13.436;2023-10-13T15:51:08;19.70;99.90
24436;DHT22;12616;52.470;13.436;2023-10-13T16:51:03;19.30;99.90
24436;DHT22;12616;52.470;13.436;2023-10-13T17:02:47;19.20;99.90
24436;DHT22;12616;52.470;13.436;2023-10-13T17:14:43;19.20;99.90
24436;DHT22;12616;52.470;13.436;2023-10-13T17:17:48;19.20;99.90
24436;DHT22;12616;52.470;13.436;2023-10-13T17:20:27;19.20;99.90
24436;DHT22;12616;52.470;13.436;2023-10-13T17:23:34;18.90;99.90
24436;DHT22;12616;52.470;13.436;2023-10-13T17:26:37;19.30;99.90
24436;DHT22;12616;52.470;13.436;2023-10-13T17:56:14;19.50;99.90
24436;DHT22;12616;52.470;13.436;2023-10-13T18:01:40;19.60;99.90
24436;DHT22;12616;52.470;13.436;2023-10-13T18:04:21;19.40;99.90
24436;DHT22;12616;52.470;13.436;2023-10-13T18:07:01;19.40;99.90
24436;DHT22;12616;52.470;13.436;2023-10-13T18:09:45;19.40;99.90
24436;DHT22;12616;52.470;13.436;2023-10-13T18:12:45;19.30;1.00
24436;DHT22;12616;52.470;13.436;2023-10-13T18:15:32;19.40;99.90
24436;DHT22;12616;52.470;13.436;2023-10-13T18:18:21;19.20;99.90
24436;DHT22;12616;52.470;13.436;2023-10-13T18:21:14;19.40;99.90
24436;DHT22;12616;52.470;13.436;2023-10-13T18:24:34;19.50;86.20
24436;DHT22;12616;52.470;13.436;2023-10-13T18:27:31;19.50;99.00
24436;DHT22;12616;52.470;13.436;2023-10-13T18:30:23;19.50;53.70
24436;DHT22;12616;52.470;13.436;2023-10-13T18:37:33;19.60;1.00
24436;DHT22;12616;52.470;13.436;2023-10-13T18:53:14;19.60;99.90
24436;DHT22;12616;52.470;13.436;2023-10-13T18:56:20;18.20;1.00
24436;DHT22;12616;52.470;13.436;2023-10-13T19:04:02;19.60;1.00
24436;DHT22;12616;52.470;13.436;2023-10-13T19:32:47;19.50;99.90
24436;DHT22;12616;52.470;13.436;2023-10-13T19:35:45;19.70;1.00
24436;DHT22;12616;52.470;13.436;2023-10-13T19:42:31;19.70;99.90
24436;DHT22;12616;52.470;13.436;2023-10-13T22:19:57;19.20;89.40
24436;DHT22;12616;52.470;13.436;2023-10-13T22:26:42;19.20;1.00
24436;DHT22;12616;52.470;13.436;2023-10-13T22:42:42;19.20;99.90
24436;DHT22;12616;52.470;13.436;2023-10-13T22:45:32;19.10;1.00
24436;DHT22;12616;52.470;13.436;2023-10-13T23:02:56;19.20;99.90
24436;DHT22;12616;52.470;13.436;2023-10-13T23:05:30;19.10;1.00
24436;DHT22;12616;52.470;13.436;2023-10-13T23:13:14;19.20;1.00
24436;DHT22;12616;52.470;13.436;2023-10-13T23:25:43;19.20;99.90
24436;DHT22;12616;52.470;13.436;2023-10-13T23:28:11;19.20;99.90
24436;DHT22;12616;52.470;13.436;2023-10-13T23:30:42;19.20;99.90
24436;DHT22;12616;52.470;13.436;2023-10-13T23:33:10;19.30;1.00
24436;DHT22;12616;52.470;13.436;2023-10-13T23:35:39;19.20;99.90
24436;DHT22;12616;52.470;13.436;2023-10-13T23:38:08;19.20;1.00
24436;DHT22;12616;52.470;13.436;2023-10-13T23:40:44;19.30;1.00
24436;DHT22;12616;52.470;13.436;2023-10-13T23:45:47;19.20;1.00
24436;DHT22;12616;52.470;13.436;2023-10-13T23:48:15;19.20;1.00
24436;DHT22;12616;52.470;13.436;2023-10-13T23:50:44;19.10;99.90
24436;DHT22;12616;52.470;13.436;2023-10-13T23:53:23;19.00;1.00
24436;DHT22;12616;52.470;13.436;2023-10-13T23:55:55;18.50;1.00
